Terminal Aerodrome Forecast
Issued by NWS Shreveport, LA

Home | Current Version | Previous Version | Text Only | Print | Product List | Glossary On
Versions: 1 2 3 4 5 6 7 8 9 10 11 12 13 14
000
FTUS44 KSHV 310500
TAFELD
TAF
KELD 310523Z 3106/0106 07005KT P6SM SCT090 BKN120 OVC250
     FM310800 07004KT P6SM -RA OVC090
     FM311300 10005KT 6SM SHRA BR SCT040 OVC070
     FM311600 10005KT 6SM SHRA BR SCT020 BKN045
     FM311900 09006KT P6SM -RA SCT030 BKN045
     FM010000 06005KT P6SM VCSH SCT025 BKN035=

USA.gov is the U.S. government's official web portal to all federal, state and local government web resources and services.